Terminal Aerodrome Forecast
Issued by NWS

Home | Current Version | Previous Version | Text Only | Print | Product List | Glossary On
Versions: 1 2 3 4 5 6 7 8 9 10 11 12 13 14 15 16 17 18 19
792
FTUS43 KAPX 301740 AAB
TAFPLN
TAF AMD
KPLN 301740Z 3018/0118 09015G24KT P6SM OVC014
     FM302300 06013G23KT P6SM VCSH OVC008
     FM010100 07011G21KT P6SM OVC008
     FM010500 08010G20KT P6SM VCSH OVC008
     FM010800 09009KT P6SM -SHRA OVC008
     FM011300 10012G21KT 5SM -SHRA BR OVC008 WS020/10045KT
     FM011500 11009KT 2SM BR OVC003
     FM011700 16008KT 4SM BR BKN020=

USA.gov is the U.S. government's official web portal to all federal, state and local government web resources and services.